createdAt,value
2023-12-18T00:00:37.992Z,3.53
2023-12-18T00:03:05.043Z,3.60
2023-12-18T00:05:31.923Z,3.22
2023-12-18T00:07:58.473Z,3.08
2023-12-18T00:10:24.961Z,3.22
2023-12-18T00:12:51.480Z,3.03
2023-12-18T00:15:18.177Z,3.47
2023-12-18T00:17:44.894Z,2.85
2023-12-18T00:24:01.712Z,3.40
2023-12-18T00:26:30.446Z,3.22
2023-12-18T00:28:57.265Z,3.30
2023-12-18T00:31:23.874Z,3.20
2023-12-18T00:33:50.508Z,3.22
2023-12-18T00:36:17.753Z,3.30
2023-12-18T00:38:44.509Z,3.28
2023-12-18T00:41:11.032Z,2.83
2023-12-18T00:43:37.519Z,3.47
2023-12-18T00:46:05.577Z,3.15
2023-12-18T00:48:32.299Z,3.30
2023-12-18T00:50:58.923Z,3.35
2023-12-18T00:53:25.557Z,2.83
2023-12-18T00:55:53.507Z,3.20
2023-12-18T00:58:20.044Z,3.50
2023-12-18T01:00:49.676Z,3.53
2023-12-18T01:03:23.507Z,2.88
2023-12-18T01:05:51.431Z,3.38
2023-12-18T01:08:18.881Z,3.20
2023-12-18T01:10:45.391Z,3.75
2023-12-18T01:13:11.874Z,3.40
2023-12-18T01:15:38.458Z,3.20
2023-12-18T01:18:05.430Z,2.97
2023-12-18T01:20:31.953Z,3.00
2023-12-18T01:23:04.132Z,2.83
2023-12-18T01:25:34.078Z,3.53
2023-12-18T01:28:00.778Z,3.10
2023-12-18T01:30:27.645Z,3.58
2023-12-18T01:32:54.340Z,3.90
2023-12-18T01:35:21.087Z,3.28
2023-12-18T01:37:47.732Z,3.47
2023-12-18T01:40:14.356Z,3.25
2023-12-18T01:42:45.230Z,3.20
2023-12-18T01:45:12.142Z,3.22
2023-12-18T01:47:39.008Z,3.45
2023-12-18T01:50:07.266Z,3.40
2023-12-18T01:52:34.810Z,4.05
2023-12-18T01:55:02.113Z,3.33
2023-12-18T01:57:28.868Z,3.53
2023-12-18T01:59:56.950Z,3.65
2023-12-18T02:02:23.541Z,3.47
2023-12-18T02:04:50.503Z,3.45
2023-12-18T02:07:17.201Z,3.38
2023-12-18T02:09:43.997Z,3.53
2023-12-18T02:12:11.015Z,3.95
2023-12-18T02:14:38.253Z,3.42
2023-12-18T02:17:04.792Z,4.13
2023-12-18T02:19:31.640Z,4.57
2023-12-18T02:25:57.552Z,4.65
2023-12-18T02:28:25.248Z,4.35
2023-12-18T02:30:52.402Z,4.43
2023-12-18T02:33:19.080Z,4.90
2023-12-18T02:35:49.356Z,4.97
2023-12-18T02:38:15.897Z,4.47
2023-12-18T02:40:46.225Z,5.05
2023-12-18T02:43:12.799Z,5.05
2023-12-18T02:45:39.387Z,6.03
2023-12-18T02:48:06.207Z,5.53
2023-12-18T02:50:35.103Z,5.60
2023-12-18T02:53:01.631Z,5.38
2023-12-18T02:55:28.162Z,5.30
2023-12-18T02:57:54.685Z,6.40
2023-12-18T03:00:24.067Z,6.18
2023-12-18T03:02:51.107Z,6.20
2023-12-18T03:05:17.728Z,6.45
2023-12-18T03:07:47.253Z,6.40
2023-12-18T03:10:14.152Z,6.20
2023-12-18T03:12:40.684Z,5.93
2023-12-18T03:15:08.026Z,6.25
2023-12-18T03:17:34.562Z,6.72
2023-12-18T03:20:01.187Z,6.28
2023-12-18T03:22:27.669Z,6.72
2023-12-18T03:24:54.176Z,6.72
2023-12-18T03:28:17.102Z,6.45
2023-12-18T03:30:43.685Z,6.07
2023-12-18T03:33:10.541Z,6.72
2023-12-18T03:35:37.206Z,6.70
2023-12-18T03:38:03.795Z,6.25
2023-12-18T03:40:30.385Z,6.93
2023-12-18T03:42:56.887Z,7.20
2023-12-18T03:45:23.468Z,6.43
2023-12-18T03:47:51.054Z,6.97
2023-12-18T03:51:09.023Z,6.90
2023-12-18T03:53:35.844Z,7.13
2023-12-18T03:56:02.792Z,7.20
2023-12-18T03:58:29.315Z,7.28
2023-12-18T04:00:56.381Z,7.50
2023-12-18T04:03:22.963Z,7.47
2023-12-18T04:05:49.483Z,7.13
2023-12-18T06:41:59.020Z,7.68
2023-12-18T06:44:25.506Z,7.10
2023-12-18T06:46:52.039Z,7.68
2023-12-18T06:49:21.403Z,7.57
2023-12-18T06:51:51.823Z,7.22
2023-12-18T06:54:18.745Z,7.78
2023-12-18T06:56:45.353Z,6.97
2023-12-18T06:59:12.096Z,7.13
2023-12-18T07:01:38.700Z,7.22
2023-12-18T07:04:05.399Z,7.40
2023-12-18T07:06:33.487Z,7.95
2023-12-18T07:09:00.219Z,7.30
2023-12-18T07:11:26.912Z,7.68
2023-12-18T07:13:53.458Z,7.85
2023-12-18T07:16:23.261Z,8.10
2023-12-18T07:18:54.800Z,7.50
2023-12-18T07:24:48.665Z,7.40
2023-12-18T07:27:18.249Z,7.50
2023-12-18T07:29:47.476Z,7.22
2023-12-18T07:32:14.005Z,7.35
2023-12-18T07:34:40.771Z,7.55
2023-12-18T07:37:07.829Z,7.75
2023-12-18T07:39:34.363Z,7.78
2023-12-18T07:42:01.307Z,7.10
2023-12-18T07:44:27.890Z,7.55
2023-12-18T07:46:54.384Z,7.93
2023-12-18T07:49:20.970Z,7.57
2023-12-18T07:51:49.916Z,7.50
2023-12-18T07:54:16.833Z,7.18
2023-12-18T07:56:43.317Z,7.40
2023-12-18T07:59:09.878Z,7.18
2023-12-18T08:01:36.383Z,7.38
2023-12-18T08:04:02.992Z,7.00
2023-12-18T08:06:29.645Z,7.07
2023-12-18T08:08:56.204Z,6.90
2023-12-18T08:11:23.918Z,7.63
2023-12-18T08:13:53.118Z,7.25
2023-12-18T08:16:20.164Z,6.55
2023-12-18T08:18:48.496Z,6.50
2023-12-18T08:21:16.769Z,6.95
2023-12-18T08:23:46.265Z,7.03
2023-12-18T08:26:12.926Z,6.70
2023-12-18T08:28:42.950Z,6.53
2023-12-18T08:31:09.682Z,6.45
2023-12-18T08:33:36.427Z,7.28
2023-12-18T08:36:02.998Z,7.20
2023-12-18T08:38:29.894Z,7.53
2023-12-18T08:40:56.386Z,7.03
2023-12-18T08:43:23.789Z,7.22
2023-12-18T08:45:53.266Z,7.35
2023-12-18T08:48:19.896Z,7.45
2023-12-18T08:50:54.845Z,7.22
2023-12-18T08:53:21.393Z,7.00
2023-12-18T08:55:49.690Z,7.57
2023-12-18T08:58:16.219Z,8.25
2023-12-18T09:00:43.709Z,7.88
2023-12-18T09:03:10.398Z,6.97
2023-12-18T09:05:38.776Z,7.63
2023-12-18T09:08:06.489Z,7.38
2023-12-18T09:10:34.374Z,7.93
2023-12-18T09:13:01.046Z,7.78
2023-12-18T09:15:27.627Z,7.13
2023-12-18T09:17:54.215Z,6.65
2023-12-18T09:20:20.798Z,6.85
2023-12-18T09:22:51.590Z,7.03
2023-12-18T09:25:20.276Z,6.93
2023-12-18T09:27:46.758Z,6.95
2023-12-18T09:30:13.912Z,6.65
2023-12-18T09:32:40.893Z,6.32
2023-12-18T09:35:07.776Z,6.32
2023-12-18T09:37:34.427Z,6.40
2023-12-18T09:40:00.948Z,6.95
2023-12-18T09:42:27.995Z,7.05
2023-12-18T09:44:54.789Z,6.88
2023-12-18T09:47:21.441Z,7.38
2023-12-18T09:49:48.128Z,7.35
2023-12-18T09:52:21.003Z,6.43
2023-12-18T09:54:53.936Z,7.10
2023-12-18T09:57:24.780Z,6.85
2023-12-18T09:59:51.478Z,7.15
2023-12-18T10:02:18.319Z,7.90
2023-12-18T10:04:45.198Z,6.85
2023-12-18T10:07:11.848Z,7.45
2023-12-18T10:09:38.454Z,6.97
2023-12-18T10:12:05.436Z,7.70
2023-12-18T10:14:32.019Z,7.05
2023-12-18T10:16:58.690Z,6.88
2023-12-18T10:19:25.452Z,6.70
2023-12-18T10:21:55.671Z,7.00
2023-12-18T10:24:22.287Z,7.53
2023-12-18T10:26:51.341Z,7.28
2023-12-18T10:29:17.876Z,7.63
2023-12-18T10:31:45.487Z,7.47
2023-12-18T10:37:55.531Z,7.22
2023-12-18T10:40:24.271Z,7.38
2023-12-18T10:43:08.563Z,7.50
2023-12-18T10:45:35.507Z,6.72
2023-12-18T10:48:03.031Z,6.95
2023-12-18T10:50:31.920Z,7.60
2023-12-18T10:53:00.740Z,6.95
2023-12-18T10:55:28.437Z,7.30
2023-12-18T10:57:59.258Z,7.15
2023-12-18T11:00:26.944Z,7.03
2023-12-18T11:02:55.785Z,6.97
2023-12-18T11:05:22.692Z,7.70
2023-12-18T11:07:53.047Z,7.32
2023-12-18T11:10:20.184Z,7.82
2023-12-18T11:12:47.477Z,7.68
2023-12-18T11:15:38.588Z,7.30
2023-12-18T11:18:20.946Z,7.43
2023-12-18T11:20:48.120Z,7.03
2023-12-18T11:23:17.639Z,6.97
2023-12-18T11:25:51.238Z,7.68
2023-12-18T11:28:21.275Z,8.15
2023-12-18T11:30:48.064Z,7.30
2023-12-18T11:33:18.066Z,6.30
2023-12-18T11:35:48.750Z,7.80
2023-12-18T11:38:16.536Z,8.20
2023-12-18T11:40:44.158Z,7.40
2023-12-18T11:43:33.582Z,7.95
2023-12-18T11:46:14.271Z,7.50
2023-12-18T11:51:18.404Z,7.25
2023-12-18T11:53:44.989Z,6.82
2023-12-18T11:56:12.853Z,6.93
2023-12-18T11:58:45.755Z,6.53
2023-12-18T12:01:13.597Z,6.70
2023-12-18T12:03:41.084Z,7.15
2023-12-18T12:06:08.535Z,7.32
2023-12-18T12:08:46.684Z,8.02
2023-12-18T12:11:13.612Z,6.68
2023-12-18T12:13:40.312Z,7.57
2023-12-18T12:16:07.243Z,7.35
2023-12-18T12:18:46.750Z,7.38
2023-12-18T12:21:14.114Z,7.50
2023-12-18T12:23:40.634Z,7.65
2023-12-18T12:26:09.907Z,7.65
2023-12-18T12:28:36.761Z,7.70
2023-12-18T12:31:04.529Z,8.57
2023-12-18T12:33:46.227Z,7.60
2023-12-18T12:36:18.115Z,8.48
2023-12-18T12:38:45.104Z,8.35
2023-12-18T12:41:12.147Z,8.10
2023-12-18T12:43:38.672Z,8.35
2023-12-18T12:46:07.124Z,8.05
2023-12-18T12:48:36.846Z,7.80
2023-12-18T12:51:03.927Z,8.23
2023-12-18T12:53:31.756Z,8.60
2023-12-18T12:56:00.191Z,8.07
2023-12-18T12:58:26.791Z,8.13
2023-12-18T13:00:54.795Z,7.72
2023-12-18T13:03:22.004Z,7.75
2023-12-18T13:05:49.788Z,8.15
2023-12-18T13:08:16.326Z,7.75
2023-12-18T13:10:42.876Z,8.10
2023-12-18T13:13:09.393Z,7.80
2023-12-18T13:15:36.759Z,9.02
2023-12-18T13:18:03.526Z,9.15
2023-12-18T13:20:36.582Z,8.05
2023-12-18T13:23:03.259Z,8.50
2023-12-18T13:25:29.754Z,8.50
2023-12-18T13:27:56.802Z,8.70
2023-12-18T13:30:23.552Z,8.13
2023-12-18T13:32:50.178Z,8.15
2023-12-18T13:35:16.760Z,8.63
2023-12-18T13:37:43.549Z,8.32
2023-12-18T13:40:10.465Z,7.97
2023-12-18T13:42:38.564Z,8.60
2023-12-18T13:45:05.700Z,7.80
2023-12-18T13:47:32.516Z,7.72
2023-12-18T13:49:59.295Z,7.93
2023-12-18T13:52:29.009Z,8.10
2023-12-18T13:54:55.630Z,7.70
2023-12-18T13:57:22.537Z,8.18
2023-12-18T13:59:51.853Z,8.43
2023-12-18T14:02:18.450Z,7.88
2023-12-18T14:04:46.087Z,8.00
2023-12-18T14:07:12.622Z,7.90
2023-12-18T14:09:39.530Z,8.38
2023-12-18T14:12:06.556Z,8.05
2023-12-18T14:14:33.150Z,7.18
2023-12-18T14:16:59.643Z,7.25
2023-12-18T14:19:26.277Z,7.45
2023-12-18T14:21:59.276Z,8.63
2023-12-18T14:24:25.805Z,8.23
2023-12-18T14:26:54.669Z,7.28
2023-12-18T14:29:21.319Z,7.30
2023-12-18T14:31:47.931Z,7.95
2023-12-18T14:34:15.914Z,9.35
2023-12-18T14:36:43.097Z,8.55
2023-12-18T14:39:09.645Z,7.30
2023-12-18T14:41:36.143Z,8.02
2023-12-18T14:44:02.667Z,8.25
2023-12-18T14:46:29.171Z,9.75
2023-12-18T14:48:56.030Z,6.97
2023-12-18T14:55:15.345Z,7.70
2023-12-18T14:57:42.032Z,7.22
2023-12-18T15:00:09.792Z,7.30
2023-12-18T15:02:36.352Z,7.00
2023-12-18T15:05:03.360Z,6.70
2023-12-18T15:07:30.314Z,7.57
2023-12-18T15:09:56.986Z,7.05
2023-12-18T15:12:24.496Z,7.75
2023-12-18T15:14:51.052Z,8.00
2023-12-18T15:17:17.557Z,7.50
2023-12-18T15:19:44.143Z,8.55
2023-12-18T15:22:13.705Z,7.32
2023-12-18T15:24:41.250Z,7.03
2023-12-18T15:27:12.194Z,8.25
2023-12-18T15:29:38.772Z,7.75
2023-12-18T15:32:05.587Z,7.20
2023-12-18T15:34:33.030Z,7.03
2023-12-18T15:36:59.964Z,5.78
2023-12-18T15:39:26.583Z,6.90
2023-12-18T15:41:56.210Z,6.88
2023-12-18T15:44:22.769Z,6.47
2023-12-18T15:46:49.310Z,7.05
2023-12-18T15:49:16.076Z,6.70
2023-12-18T15:51:42.930Z,6.47
2023-12-18T15:54:09.465Z,6.47
2023-12-18T15:56:45.868Z,6.72
2023-12-18T15:59:13.284Z,6.47
2023-12-18T16:01:46.661Z,6.25
2023-12-18T16:04:13.479Z,6.72
2023-12-18T16:06:41.632Z,6.68
2023-12-18T16:09:11.774Z,6.35
2023-12-18T16:11:38.576Z,6.97
2023-12-18T16:14:05.057Z,5.57
2023-12-18T16:16:31.571Z,5.88
2023-12-18T16:18:58.242Z,6.68
2023-12-18T16:21:24.810Z,5.68
2023-12-18T16:23:54.445Z,6.07
2023-12-18T16:26:21.118Z,5.97
2023-12-18T16:28:47.630Z,6.32
2023-12-18T16:31:15.536Z,6.32
2023-12-18T16:33:42.199Z,5.38
2023-12-18T16:36:18.137Z,5.55
2023-12-18T16:38:49.088Z,6.00
2023-12-18T16:41:17.623Z,5.65
2023-12-18T16:43:44.976Z,5.72
2023-12-18T16:46:11.719Z,5.63
2023-12-18T16:48:38.532Z,7.47
2023-12-18T16:51:06.176Z,6.45
2023-12-18T16:53:32.950Z,6.05
2023-12-18T16:56:01.057Z,5.40
2023-12-18T16:58:28.460Z,6.05
2023-12-18T17:00:57.796Z,5.60
2023-12-18T17:03:24.444Z,6.30
2023-12-18T17:05:51.107Z,5.97
2023-12-18T17:08:18.182Z,5.70
2023-12-18T17:10:45.557Z,6.32
2023-12-18T17:13:15.337Z,5.95
2023-12-18T17:15:43.652Z,5.57
2023-12-18T17:18:11.035Z,5.40
2023-12-18T17:21:37.214Z,5.57
2023-12-18T17:24:04.519Z,5.30
2023-12-18T17:26:31.158Z,5.70
2023-12-18T17:28:58.611Z,5.13
2023-12-18T17:31:30.559Z,5.03
2023-12-18T17:33:58.163Z,5.50
2023-12-18T17:36:24.867Z,5.25
2023-12-18T17:38:51.642Z,5.57
2023-12-18T17:41:21.244Z,5.25
2023-12-18T17:43:48.556Z,5.50
2023-12-18T17:46:15.123Z,6.00
2023-12-18T17:48:43.075Z,5.80
2023-12-18T17:51:21.902Z,5.88
2023-12-18T17:53:48.478Z,6.07
2023-12-18T17:56:15.043Z,6.57
2023-12-18T17:58:41.672Z,6.13
2023-12-18T18:01:08.235Z,5.45
2023-12-18T18:03:36.025Z,6.20
2023-12-18T18:06:02.727Z,6.47
2023-12-18T18:08:29.275Z,6.82
2023-12-18T18:10:56.954Z,6.30
2023-12-18T18:13:23.750Z,6.38
2023-12-18T18:15:50.371Z,6.95
2023-12-18T18:18:17.139Z,5.90
2023-12-18T18:20:44.236Z,6.78
2023-12-18T18:23:11.861Z,7.70
2023-12-18T18:25:40.156Z,8.63
2023-12-18T18:28:08.893Z,6.78
2023-12-18T18:30:35.618Z,8.65
2023-12-18T18:33:02.346Z,7.22
2023-12-18T18:35:31.376Z,7.40
2023-12-18T18:37:57.916Z,6.95
2023-12-18T18:40:24.523Z,7.82
2023-12-18T18:42:51.131Z,6.75
2023-12-18T18:45:17.658Z,6.35
2023-12-18T18:47:45.637Z,6.60
2023-12-18T18:54:59.476Z,7.22
2023-12-18T18:57:26.019Z,5.93
2023-12-18T18:59:55.194Z,8.45
2023-12-18T19:02:21.685Z,6.72
2023-12-18T19:04:48.302Z,7.57
2023-12-18T19:07:17.657Z,7.30
2023-12-18T19:09:44.234Z,7.38
2023-12-18T19:12:10.833Z,6.63
2023-12-18T19:14:37.371Z,7.18
2023-12-18T19:17:05.623Z,7.63
2023-12-18T19:19:35.013Z,7.63
2023-12-18T19:22:07.255Z,6.78
2023-12-18T19:24:34.000Z,7.50
2023-12-18T19:27:00.589Z,6.85
2023-12-18T19:29:27.086Z,7.68
2023-12-18T19:31:55.477Z,6.82
2023-12-18T19:34:22.249Z,6.80
2023-12-18T19:36:49.001Z,8.73
2023-12-18T19:39:15.919Z,8.90
2023-12-18T19:41:42.661Z,9.60
2023-12-18T19:44:10.404Z,8.07
2023-12-18T19:46:37.109Z,7.97
2023-12-18T19:49:03.966Z,8.25
2023-12-18T19:51:35.983Z,7.78
2023-12-18T19:56:32.274Z,6.75
2023-12-18T19:58:58.759Z,8.05
2023-12-18T20:01:25.354Z,7.68
2023-12-18T20:03:59.566Z,8.20
2023-12-18T20:06:28.156Z,10.93
2023-12-18T20:08:57.262Z,7.75
2023-12-18T20:11:23.979Z,7.68
2023-12-18T20:13:50.867Z,7.18
2023-12-18T20:16:20.646Z,7.47
2023-12-18T20:18:47.367Z,7.15
2023-12-18T20:21:28.597Z,7.70
2023-12-18T20:23:58.796Z,6.75
2023-12-18T20:26:25.308Z,7.18
2023-12-18T20:28:51.895Z,6.82
2023-12-18T20:31:18.596Z,7.05
2023-12-18T20:33:45.229Z,7.18
2023-12-18T20:36:11.796Z,7.07
2023-12-18T20:38:38.408Z,7.35
2023-12-18T20:41:04.917Z,7.40
2023-12-18T20:43:31.725Z,7.65
2023-12-18T20:45:59.337Z,7.15
2023-12-18T20:48:26.017Z,7.28
2023-12-18T20:51:00.050Z,6.45
2023-12-18T20:53:27.019Z,6.88
2023-12-18T20:55:54.754Z,6.70
2023-12-18T20:58:23.002Z,7.03
2023-12-18T21:00:49.638Z,7.32
2023-12-18T21:03:19.121Z,6.60
2023-12-18T21:05:49.499Z,6.70
2023-12-18T21:08:17.999Z,7.32
2023-12-18T21:10:44.638Z,7.30
2023-12-18T21:13:12.891Z,6.60
2023-12-18T21:15:39.451Z,6.82
2023-12-18T21:18:06.275Z,7.25
2023-12-18T21:20:32.851Z,7.05
2023-12-18T21:22:59.529Z,6.68
2023-12-18T21:25:26.088Z,6.10
2023-12-18T21:27:52.991Z,7.20
2023-12-18T21:30:22.210Z,6.32
2023-12-18T21:32:48.851Z,6.43
2023-12-18T21:35:15.834Z,6.43
2023-12-18T21:37:42.446Z,6.03
2023-12-18T21:40:09.607Z,7.32
2023-12-18T21:42:36.167Z,6.07
2023-12-18T21:45:02.975Z,5.78
2023-12-18T21:47:31.108Z,6.10
2023-12-18T21:49:59.108Z,6.38
2023-12-18T21:52:25.987Z,5.60
2023-12-18T21:54:53.017Z,5.85
2023-12-18T21:57:19.711Z,5.90
2023-12-18T21:59:46.652Z,5.10
2023-12-18T22:02:13.944Z,5.90
2023-12-18T22:04:40.616Z,6.47
2023-12-18T22:07:07.231Z,5.78
2023-12-18T22:09:36.819Z,5.72
2023-12-18T22:12:03.456Z,5.63
2023-12-18T22:14:29.979Z,5.45
2023-12-18T22:16:59.610Z,6.40
2023-12-18T22:19:26.306Z,6.13
2023-12-18T22:22:49.912Z,6.15
2023-12-18T22:25:16.476Z,5.90
2023-12-18T22:27:42.977Z,5.78
2023-12-18T22:30:21.695Z,5.07
2023-12-18T22:32:48.341Z,5.90
2023-12-18T22:35:14.949Z,5.30
2023-12-18T22:37:41.459Z,6.05
2023-12-18T22:40:08.471Z,4.95
2023-12-18T22:42:35.078Z,5.68
2023-12-18T22:45:01.856Z,4.97
2023-12-18T22:47:28.412Z,5.10
2023-12-18T22:49:55.123Z,5.28
2023-12-18T22:52:27.210Z,5.22
2023-12-18T22:54:58.047Z,5.70
2023-12-18T22:57:24.639Z,6.25
2023-12-18T22:59:52.250Z,5.78
2023-12-18T23:02:18.750Z,5.47
2023-12-18T23:04:45.326Z,5.95
2023-12-18T23:07:11.895Z,5.28
2023-12-18T23:09:38.474Z,5.18
2023-12-18T23:12:05.480Z,5.93
2023-12-18T23:14:32.008Z,5.65
2023-12-18T23:17:01.461Z,5.82
2023-12-18T23:19:28.212Z,5.82
2023-12-18T23:22:12.851Z,5.80
2023-12-18T23:24:39.464Z,6.65
2023-12-18T23:27:06.065Z,6.63
2023-12-18T23:29:32.562Z,6.25
2023-12-18T23:31:59.078Z,6.30
2023-12-18T23:34:25.713Z,7.00
2023-12-18T23:36:52.716Z,6.00
2023-12-18T23:39:19.904Z,6.10
2023-12-18T23:41:46.636Z,5.70
2023-12-18T23:44:14.069Z,6.88
2023-12-18T23:46:40.689Z,6.57
2023-12-18T23:49:07.546Z,5.78
2023-12-18T23:51:39.673Z,6.97
2023-12-18T23:54:06.241Z,6.57
2023-12-18T23:56:32.796Z,6.20
2023-12-18T23:58:59.328Z,7.43
